Decoded Metar for CYYG (CHARLOTTETOWN in PE, CANADA) (IATA:YYG) | Meteo·Mobile Aviation Weather
aviador You're here:

CYYG Decoded Metar

CHARLOTTETOWN in PE, CANADA
Report Time2018-12-14 17:00:00
UTC Time2018-12-14 17:32:54
Flight Rules vfr VFR
Wind240° at 09 Gusting to 17 kt
W.Decomp.*RWY 28: 8.5 kt HW 3.1 kt LCW
RWY 21: 5.8 kt HW 6.9 kt RCW
W.Rank240° ranks 1
Current wind is above 240° avg. (8.8)
Visibility9999 m
Phenomena:N/A
Clouds:Broken 260 Hf
Expected CloudBase > 2,800 ft AGL from Temp-Dew spread
Ceiling26,000 ft
Temp-1°C (ISA -16)
Dew Point-8°C (59% RH)
AAT-7.1°C
QNH1028 hPa
Density Alt-2,201 ft
Elevation177 ft
Report Wrong Elevation
Raw Report
CYYG 141700Z 24009G17KT 15SM BKN260 M01/M08 A3037 RMK CI5
SLP289=

Extra information for CYYG:More info

Metar Taf Metar & Taf Last 4 Metars F.Rules Stats Wind Profile Meteogram Temp Stats Airport Information Weather charts Add Link Nearby VenuesMetar ALERT Operation Metar Decoded Social comments